sensor_id;sensor_type;location;lat;lon;timestamp;P1;durP1;ratioP1;P2;durP2;ratioP2
16015;SDS011;8112;53.592;10.184;2023-03-01T00:04:49;12.13;;;9.13;;
16015;SDS011;8112;53.592;10.184;2023-03-01T00:09:52;11.80;;;9.20;;
16015;SDS011;8112;53.592;10.184;2023-03-01T00:14:54;14.00;;;9.53;;
16015;SDS011;8112;53.592;10.184;2023-03-01T00:19:55;12.37;;;9.37;;
16015;SDS011;8112;53.592;10.184;2023-03-01T00:24:58;14.23;;;9.97;;
16015;SDS011;8112;53.592;10.184;2023-03-01T00:30:00;11.87;;;8.33;;
16015;SDS011;8112;53.592;10.184;2023-03-01T00:35:03;11.70;;;8.23;;
16015;SDS011;8112;53.592;10.184;2023-03-01T00:40:07;9.83;;;8.03;;
16015;SDS011;8112;53.592;10.184;2023-03-01T00:45:10;14.90;;;11.83;;
16015;SDS011;8112;53.592;10.184;2023-03-01T00:50:13;14.93;;;11.67;;
16015;SDS011;8112;53.592;10.184;2023-03-01T00:55:17;13.00;;;10.33;;
16015;SDS011;8112;53.592;10.184;2023-03-01T01:00:19;13.83;;;10.20;;
16015;SDS011;8112;53.592;10.184;2023-03-01T01:05:22;15.20;;;9.13;;
16015;SDS011;8112;53.592;10.184;2023-03-01T01:10:25;11.47;;;8.07;;
16015;SDS011;8112;53.592;10.184;2023-03-01T01:15:27;11.13;;;7.80;;
16015;SDS011;8112;53.592;10.184;2023-03-01T01:20:29;12.00;;;8.03;;
16015;SDS011;8112;53.592;10.184;2023-03-01T01:25:32;10.97;;;8.17;;
16015;SDS011;8112;53.592;10.184;2023-03-01T01:30:35;10.43;;;7.53;;
16015;SDS011;8112;53.592;10.184;2023-03-01T01:35:37;11.37;;;8.13;;
16015;SDS011;8112;53.592;10.184;2023-03-01T01:40:44;10.60;;;7.67;;
16015;SDS011;8112;53.592;10.184;2023-03-01T01:45:46;10.83;;;8.57;;
16015;SDS011;8112;53.592;10.184;2023-03-01T01:50:50;12.17;;;8.27;;
16015;SDS011;8112;53.592;10.184;2023-03-01T01:55:59;13.93;;;9.23;;
16015;SDS011;8112;53.592;10.184;2023-03-01T02:01:04;10.77;;;8.47;;
16015;SDS011;8112;53.592;10.184;2023-03-01T02:06:10;13.50;;;8.67;;
16015;SDS011;8112;53.592;10.184;2023-03-01T02:11:17;10.97;;;8.63;;
16015;SDS011;8112;53.592;10.184;2023-03-01T02:16:22;12.10;;;7.83;;
16015;SDS011;8112;53.592;10.184;2023-03-01T02:21:28;13.13;;;8.57;;
16015;SDS011;8112;53.592;10.184;2023-03-01T02:26:38;11.63;;;8.13;;
16015;SDS011;8112;53.592;10.184;2023-03-01T02:31:44;11.93;;;8.27;;
16015;SDS011;8112;53.592;10.184;2023-03-01T02:36:47;11.90;;;8.17;;
16015;SDS011;8112;53.592;10.184;2023-03-01T02:41:51;11.60;;;8.90;;
16015;SDS011;8112;53.592;10.184;2023-03-01T02:46:56;10.40;;;7.70;;
16015;SDS011;8112;53.592;10.184;2023-03-01T02:52:16;9.13;;;7.67;;
16015;SDS011;8112;53.592;10.184;2023-03-01T02:57:40;9.87;;;7.90;;
16015;SDS011;8112;53.592;10.184;2023-03-01T03:02:46;11.73;;;8.87;;
16015;SDS011;8112;53.592;10.184;2023-03-01T03:07:51;12.97;;;9.27;;
16015;SDS011;8112;53.592;10.184;2023-03-01T03:12:54;11.63;;;8.83;;
16015;SDS011;8112;53.592;10.184;2023-03-01T03:17:59;14.23;;;9.30;;
16015;SDS011;8112;53.592;10.184;2023-03-01T03:23:01;11.23;;;8.37;;
16015;SDS011;8112;53.592;10.184;2023-03-01T03:28:03;11.00;;;8.70;;
16015;SDS011;8112;53.592;10.184;2023-03-01T03:33:11;12.70;;;9.43;;
16015;SDS011;8112;53.592;10.184;2023-03-01T03:38:14;11.47;;;8.63;;
16015;SDS011;8112;53.592;10.184;2023-03-01T03:43:18;11.50;;;9.00;;
16015;SDS011;8112;53.592;10.184;2023-03-01T03:48:23;12.37;;;9.13;;
16015;SDS011;8112;53.592;10.184;2023-03-01T03:53:26;13.03;;;8.97;;
16015;SDS011;8112;53.592;10.184;2023-03-01T03:58:30;12.17;;;9.10;;
16015;SDS011;8112;53.592;10.184;2023-03-01T04:03:33;10.73;;;9.07;;
16015;SDS011;8112;53.592;10.184;2023-03-01T04:08:36;12.80;;;9.73;;
16015;SDS011;8112;53.592;10.184;2023-03-01T04:13:37;15.97;;;10.03;;
16015;SDS011;8112;53.592;10.184;2023-03-01T04:18:40;12.47;;;9.97;;
16015;SDS011;8112;53.592;10.184;2023-03-01T04:23:42;12.37;;;9.53;;
16015;SDS011;8112;53.592;10.184;2023-03-01T04:28:44;12.03;;;9.57;;
16015;SDS011;8112;53.592;10.184;2023-03-01T04:33:50;12.30;;;9.97;;
16015;SDS011;8112;53.592;10.184;2023-03-01T04:38:54;11.60;;;9.23;;
16015;SDS011;8112;53.592;10.184;2023-03-01T04:43:56;11.70;;;8.80;;
16015;SDS011;8112;53.592;10.184;2023-03-01T04:49:01;13.43;;;9.23;;
16015;SDS011;8112;53.592;10.184;2023-03-01T04:54:03;12.10;;;8.63;;
16015;SDS011;8112;53.592;10.184;2023-03-01T04:59:08;13.23;;;8.70;;
16015;SDS011;8112;53.592;10.184;2023-03-01T05:04:14;13.47;;;8.87;;
16015;SDS011;8112;53.592;10.184;2023-03-01T05:09:16;12.57;;;9.07;;
16015;SDS011;8112;53.592;10.184;2023-03-01T05:14:17;16.93;;;9.67;;
16015;SDS011;8112;53.592;10.184;2023-03-01T05:19:20;12.50;;;8.83;;
16015;SDS011;8112;53.592;10.184;2023-03-01T05:24:22;10.97;;;8.67;;
16015;SDS011;8112;53.592;10.184;2023-03-01T05:29:25;10.53;;;9.40;;
16015;SDS011;8112;53.592;10.184;2023-03-01T05:34:30;11.87;;;8.70;;
16015;SDS011;8112;53.592;10.184;2023-03-01T05:39:33;13.80;;;9.80;;
16015;SDS011;8112;53.592;10.184;2023-03-01T05:44:35;13.63;;;9.33;;
16015;SDS011;8112;53.592;10.184;2023-03-01T05:49:38;14.97;;;10.77;;
16015;SDS011;8112;53.592;10.184;2023-03-01T05:54:40;13.20;;;9.67;;
16015;SDS011;8112;53.592;10.184;2023-03-01T05:59:42;12.30;;;9.60;;
16015;SDS011;8112;53.592;10.184;2023-03-01T06:04:45;13.60;;;9.27;;
16015;SDS011;8112;53.592;10.184;2023-03-01T06:09:46;12.67;;;9.17;;
16015;SDS011;8112;53.592;10.184;2023-03-01T06:14:48;13.00;;;9.47;;
16015;SDS011;8112;53.592;10.184;2023-03-01T06:19:51;13.40;;;9.43;;
16015;SDS011;8112;53.592;10.184;2023-03-01T06:24:53;15.30;;;9.30;;
16015;SDS011;8112;53.592;10.184;2023-03-01T06:29:55;12.80;;;8.40;;
16015;SDS011;8112;53.592;10.184;2023-03-01T06:34:58;13.83;;;9.53;;
16015;SDS011;8112;53.592;10.184;2023-03-01T06:39:59;13.47;;;8.63;;
16015;SDS011;8112;53.592;10.184;2023-03-01T06:45:05;17.70;;;8.57;;
16015;SDS011;8112;53.592;10.184;2023-03-01T06:50:10;12.00;;;8.83;;
16015;SDS011;8112;53.592;10.184;2023-03-01T06:55:12;18.43;;;9.30;;
16015;SDS011;8112;53.592;10.184;2023-03-01T07:05:18;13.30;;;10.90;;
16015;SDS011;8112;53.592;10.184;2023-03-01T07:10:19;16.90;;;12.70;;
16015;SDS011;8112;53.592;10.184;2023-03-01T07:15:23;18.97;;;12.07;;
16015;SDS011;8112;53.592;10.184;2023-03-01T07:20:26;12.97;;;9.47;;
16015;SDS011;8112;53.592;10.184;2023-03-01T07:25:28;12.47;;;9.40;;
16015;SDS011;8112;53.592;10.184;2023-03-01T07:30:30;12.53;;;9.47;;
16015;SDS011;8112;53.592;10.184;2023-03-01T07:35:33;13.53;;;10.03;;
16015;SDS011;8112;53.592;10.184;2023-03-01T07:40:35;13.33;;;8.77;;
16015;SDS011;8112;53.592;10.184;2023-03-01T07:45:37;13.43;;;10.30;;
16015;SDS011;8112;53.592;10.184;2023-03-01T07:50:40;14.07;;;10.10;;
16015;SDS011;8112;53.592;10.184;2023-03-01T07:55:42;15.47;;;9.70;;
16015;SDS011;8112;53.592;10.184;2023-03-01T08:00:43;17.90;;;13.07;;
16015;SDS011;8112;53.592;10.184;2023-03-01T08:05:46;16.03;;;11.33;;
16015;SDS011;8112;53.592;10.184;2023-03-01T08:10:48;16.70;;;12.17;;
16015;SDS011;8112;53.592;10.184;2023-03-01T08:15:50;18.40;;;12.23;;
16015;SDS011;8112;53.592;10.184;2023-03-01T08:20:53;20.43;;;12.43;;
16015;SDS011;8112;53.592;10.184;2023-03-01T08:25:55;18.17;;;11.07;;
16015;SDS011;8112;53.592;10.184;2023-03-01T08:31:12;18.13;;;12.30;;
16015;SDS011;8112;53.592;10.184;2023-03-01T08:36:16;17.70;;;12.07;;
16015;SDS011;8112;53.592;10.184;2023-03-01T08:41:19;17.77;;;11.97;;
16015;SDS011;8112;53.592;10.184;2023-03-01T08:46:21;21.63;;;13.17;;
16015;SDS011;8112;53.592;10.184;2023-03-01T08:51:25;18.00;;;13.07;;
16015;SDS011;8112;53.592;10.184;2023-03-01T08:56:27;19.37;;;12.37;;
16015;SDS011;8112;53.592;10.184;2023-03-01T09:01:28;18.00;;;12.90;;
16015;SDS011;8112;53.592;10.184;2023-03-01T09:06:31;16.30;;;12.43;;
16015;SDS011;8112;53.592;10.184;2023-03-01T09:11:34;17.20;;;11.83;;
16015;SDS011;8112;53.592;10.184;2023-03-01T09:16:35;14.50;;;10.97;;
16015;SDS011;8112;53.592;10.184;2023-03-01T09:21:38;15.17;;;11.47;;
16015;SDS011;8112;53.592;10.184;2023-03-01T09:26:40;15.23;;;11.73;;
16015;SDS011;8112;53.592;10.184;2023-03-01T09:31:42;16.40;;;10.33;;
16015;SDS011;8112;53.592;10.184;2023-03-01T09:36:45;16.00;;;11.23;;
16015;SDS011;8112;53.592;10.184;2023-03-01T09:41:49;15.53;;;11.10;;
16015;SDS011;8112;53.592;10.184;2023-03-01T09:46:55;13.47;;;10.43;;
16015;SDS011;8112;53.592;10.184;2023-03-01T09:52:00;17.10;;;11.17;;
16015;SDS011;8112;53.592;10.184;2023-03-01T09:57:11;15.00;;;11.83;;
16015;SDS011;8112;53.592;10.184;2023-03-01T10:02:23;15.47;;;10.70;;
16015;SDS011;8112;53.592;10.184;2023-03-01T10:07:36;15.73;;;11.60;;
16015;SDS011;8112;53.592;10.184;2023-03-01T10:12:46;17.23;;;11.93;;
16015;SDS011;8112;53.592;10.184;2023-03-01T10:17:50;15.80;;;12.47;;
16015;SDS011;8112;53.592;10.184;2023-03-01T10:22:57;13.23;;;10.27;;
16015;SDS011;8112;53.592;10.184;2023-03-01T10:28:00;13.17;;;9.43;;
16015;SDS011;8112;53.592;10.184;2023-03-01T10:33:13;14.13;;;9.27;;
16015;SDS011;8112;53.592;10.184;2023-03-01T10:38:20;15.07;;;10.87;;
16015;SDS011;8112;53.592;10.184;2023-03-01T10:43:23;16.83;;;11.07;;
16015;SDS011;8112;53.592;10.184;2023-03-01T10:48:25;12.37;;;9.33;;
16015;SDS011;8112;53.592;10.184;2023-03-01T10:53:31;14.83;;;9.87;;
16015;SDS011;8112;53.592;10.184;2023-03-01T10:58:35;13.07;;;9.97;;
16015;SDS011;8112;53.592;10.184;2023-03-01T11:03:38;14.83;;;10.27;;
16015;SDS011;8112;53.592;10.184;2023-03-01T11:08:42;15.17;;;10.47;;
16015;SDS011;8112;53.592;10.184;2023-03-01T11:13:53;12.13;;;9.73;;
16015;SDS011;8112;53.592;10.184;2023-03-01T11:18:57;11.87;;;9.87;;
16015;SDS011;8112;53.592;10.184;2023-03-01T11:24:01;12.73;;;9.97;;
16015;SDS011;8112;53.592;10.184;2023-03-01T11:29:07;11.90;;;9.03;;
16015;SDS011;8112;53.592;10.184;2023-03-01T11:34:19;9.93;;;8.30;;
16015;SDS011;8112;53.592;10.184;2023-03-01T11:39:27;9.90;;;8.23;;
16015;SDS011;8112;53.592;10.184;2023-03-01T11:44:35;8.80;;;7.33;;
16015;SDS011;8112;53.592;10.184;2023-03-01T11:49:46;10.47;;;8.40;;
16015;SDS011;8112;53.592;10.184;2023-03-01T11:55:12;9.27;;;7.20;;
16015;SDS011;8112;53.592;10.184;2023-03-01T12:00:31;7.00;;;6.27;;
16015;SDS011;8112;53.592;10.184;2023-03-01T12:05:50;8.40;;;6.73;;
16015;SDS011;8112;53.592;10.184;2023-03-01T12:11:12;7.37;;;5.90;;
16015;SDS011;8112;53.592;10.184;2023-03-01T12:16:31;8.00;;;6.53;;
16015;SDS011;8112;53.592;10.184;2023-03-01T12:21:53;6.97;;;5.43;;
16015;SDS011;8112;53.592;10.184;2023-03-01T12:27:12;6.63;;;5.03;;
16015;SDS011;8112;53.592;10.184;2023-03-01T12:32:35;4.90;;;4.40;;
16015;SDS011;8112;53.592;10.184;2023-03-01T12:37:48;7.67;;;5.03;;
16015;SDS011;8112;53.592;10.184;2023-03-01T12:43:01;7.30;;;5.20;;
16015;SDS011;8112;53.592;10.184;2023-03-01T12:48:17;6.20;;;4.63;;
16015;SDS011;8112;53.592;10.184;2023-03-01T12:53:39;5.57;;;4.23;;
16015;SDS011;8112;53.592;10.184;2023-03-01T12:58:45;6.17;;;4.27;;
16015;SDS011;8112;53.592;10.184;2023-03-01T13:03:59;6.87;;;4.10;;
16015;SDS011;8112;53.592;10.184;2023-03-01T13:09:14;4.30;;;3.87;;
16015;SDS011;8112;53.592;10.184;2023-03-01T13:19:55;7.40;;;4.43;;
16015;SDS011;8112;53.592;10.184;2023-03-01T13:25:02;4.87;;;3.90;;
16015;SDS011;8112;53.592;10.184;2023-03-01T13:35:42;7.73;;;5.13;;
16015;SDS011;8112;53.592;10.184;2023-03-01T13:40:58;7.77;;;5.30;;
16015;SDS011;8112;53.592;10.184;2023-03-01T13:46:03;4.80;;;3.93;;
16015;SDS011;8112;53.592;10.184;2023-03-01T13:51:11;5.53;;;4.40;;
16015;SDS011;8112;53.592;10.184;2023-03-01T13:56:15;3.73;;;2.80;;
16015;SDS011;8112;53.592;10.184;2023-03-01T14:01:24;4.20;;;2.50;;
16015;SDS011;8112;53.592;10.184;2023-03-01T14:06:30;4.20;;;3.33;;
16015;SDS011;8112;53.592;10.184;2023-03-01T14:17:24;3.87;;;2.67;;
16015;SDS011;8112;53.592;10.184;2023-03-01T14:22:34;3.83;;;3.40;;
16015;SDS011;8112;53.592;10.184;2023-03-01T14:27:38;6.83;;;4.90;;
16015;SDS011;8112;53.592;10.184;2023-03-01T14:32:48;6.13;;;5.10;;
16015;SDS011;8112;53.592;10.184;2023-03-01T14:37:54;5.33;;;4.80;;
16015;SDS011;8112;53.592;10.184;2023-03-01T14:42:56;5.00;;;4.50;;
16015;SDS011;8112;53.592;10.184;2023-03-01T14:48:02;5.33;;;4.47;;
16015;SDS011;8112;53.592;10.184;2023-03-01T14:53:05;4.80;;;4.00;;
16015;SDS011;8112;53.592;10.184;2023-03-01T14:58:18;4.73;;;4.20;;
16015;SDS011;8112;53.592;10.184;2023-03-01T15:03:27;5.30;;;4.27;;
16015;SDS011;8112;53.592;10.184;2023-03-01T15:08:34;6.97;;;4.30;;
16015;SDS011;8112;53.592;10.184;2023-03-01T15:13:37;5.47;;;4.47;;
16015;SDS011;8112;53.592;10.184;2023-03-01T15:18:44;5.33;;;4.53;;
16015;SDS011;8112;53.592;10.184;2023-03-01T15:23:48;5.73;;;4.93;;
16015;SDS011;8112;53.592;10.184;2023-03-01T15:28:52;5.57;;;4.97;;
16015;SDS011;8112;53.592;10.184;2023-03-01T15:34:09;6.27;;;5.07;;
16015;SDS011;8112;53.592;10.184;2023-03-01T15:39:35;9.13;;;6.60;;
16015;SDS011;8112;53.592;10.184;2023-03-01T15:44:40;9.20;;;6.27;;
16015;SDS011;8112;53.592;10.184;2023-03-01T15:49:46;6.97;;;5.53;;
16015;SDS011;8112;53.592;10.184;2023-03-01T15:54:48;6.43;;;5.47;;
16015;SDS011;8112;53.592;10.184;2023-03-01T15:59:49;6.87;;;5.50;;
16015;SDS011;8112;53.592;10.184;2023-03-01T16:04:53;6.43;;;5.33;;
16015;SDS011;8112;53.592;10.184;2023-03-01T16:09:56;5.77;;;4.90;;
16015;SDS011;8112;53.592;10.184;2023-03-01T16:14:58;5.27;;;4.43;;
16015;SDS011;8112;53.592;10.184;2023-03-01T16:20:01;4.57;;;3.97;;
16015;SDS011;8112;53.592;10.184;2023-03-01T16:25:05;6.30;;;4.30;;
16015;SDS011;8112;53.592;10.184;2023-03-01T16:30:09;6.13;;;3.93;;
16015;SDS011;8112;53.592;10.184;2023-03-01T16:35:14;6.53;;;4.97;;
16015;SDS011;8112;53.592;10.184;2023-03-01T16:40:18;6.83;;;5.83;;
16015;SDS011;8112;53.592;10.184;2023-03-01T16:45:21;8.33;;;6.43;;
16015;SDS011;8112;53.592;10.184;2023-03-01T16:50:24;8.90;;;6.87;;
16015;SDS011;8112;53.592;10.184;2023-03-01T16:55:26;11.00;;;7.07;;
16015;SDS011;8112;53.592;10.184;2023-03-01T17:00:28;8.47;;;6.40;;
16015;SDS011;8112;53.592;10.184;2023-03-01T17:05:31;8.20;;;6.87;;
16015;SDS011;8112;53.592;10.184;2023-03-01T17:10:33;7.60;;;6.70;;
16015;SDS011;8112;53.592;10.184;2023-03-01T17:15:35;8.33;;;6.70;;
16015;SDS011;8112;53.592;10.184;2023-03-01T17:20:40;9.57;;;6.57;;
16015;SDS011;8112;53.592;10.184;2023-03-01T17:25:42;8.03;;;5.90;;
16015;SDS011;8112;53.592;10.184;2023-03-01T17:30:44;7.70;;;6.10;;
16015;SDS011;8112;53.592;10.184;2023-03-01T17:35:49;7.10;;;5.93;;
16015;SDS011;8112;53.592;10.184;2023-03-01T17:40:50;6.93;;;5.97;;
16015;SDS011;8112;53.592;10.184;2023-03-01T17:45:52;9.63;;;7.23;;
16015;SDS011;8112;53.592;10.184;2023-03-01T17:50:55;9.13;;;7.23;;
16015;SDS011;8112;53.592;10.184;2023-03-01T17:55:58;8.87;;;6.93;;
16015;SDS011;8112;53.592;10.184;2023-03-01T18:01:08;12.47;;;8.70;;
16015;SDS011;8112;53.592;10.184;2023-03-01T18:06:14;11.30;;;8.40;;
16015;SDS011;8112;53.592;10.184;2023-03-01T18:11:17;10.70;;;8.27;;
16015;SDS011;8112;53.592;10.184;2023-03-01T18:16:21;13.53;;;9.33;;
16015;SDS011;8112;53.592;10.184;2023-03-01T18:21:24;13.03;;;9.83;;
16015;SDS011;8112;53.592;10.184;2023-03-01T18:26:26;15.97;;;11.93;;
16015;SDS011;8112;53.592;10.184;2023-03-01T18:31:29;16.70;;;12.00;;
16015;SDS011;8112;53.592;10.184;2023-03-01T18:36:34;18.00;;;12.37;;
16015;SDS011;8112;53.592;10.184;2023-03-01T18:41:36;19.90;;;14.33;;
16015;SDS011;8112;53.592;10.184;2023-03-01T18:46:37;23.63;;;14.93;;
16015;SDS011;8112;53.592;10.184;2023-03-01T18:51:42;20.40;;;15.23;;
16015;SDS011;8112;53.592;10.184;2023-03-01T18:56:44;19.83;;;15.13;;
16015;SDS011;8112;53.592;10.184;2023-03-01T19:01:46;20.37;;;14.03;;
16015;SDS011;8112;53.592;10.184;2023-03-01T19:06:49;20.03;;;15.43;;
16015;SDS011;8112;53.592;10.184;2023-03-01T19:11:50;24.07;;;16.43;;
16015;SDS011;8112;53.592;10.184;2023-03-01T19:16:54;20.83;;;15.93;;
16015;SDS011;8112;53.592;10.184;2023-03-01T19:21:57;22.13;;;16.37;;
16015;SDS011;8112;53.592;10.184;2023-03-01T19:26:59;22.33;;;15.20;;
16015;SDS011;8112;53.592;10.184;2023-03-01T19:32:01;23.00;;;16.23;;
16015;SDS011;8112;53.592;10.184;2023-03-01T19:37:04;23.80;;;16.13;;
16015;SDS011;8112;53.592;10.184;2023-03-01T19:42:05;25.03;;;17.40;;
16015;SDS011;8112;53.592;10.184;2023-03-01T19:47:07;23.73;;;16.77;;
16015;SDS011;8112;53.592;10.184;2023-03-01T19:52:10;25.73;;;17.47;;
16015;SDS011;8112;53.592;10.184;2023-03-01T19:57:12;25.50;;;17.67;;
16015;SDS011;8112;53.592;10.184;2023-03-01T20:02:13;25.33;;;17.53;;
16015;SDS011;8112;53.592;10.184;2023-03-01T20:07:16;27.80;;;18.30;;
16015;SDS011;8112;53.592;10.184;2023-03-01T20:12:18;28.17;;;19.10;;
16015;SDS011;8112;53.592;10.184;2023-03-01T20:17:20;27.90;;;17.93;;
16015;SDS011;8112;53.592;10.184;2023-03-01T20:22:24;27.80;;;18.50;;
16015;SDS011;8112;53.592;10.184;2023-03-01T20:27:26;27.23;;;18.13;;
16015;SDS011;8112;53.592;10.184;2023-03-01T20:32:28;29.63;;;18.93;;
16015;SDS011;8112;53.592;10.184;2023-03-01T20:37:32;31.30;;;19.23;;
16015;SDS011;8112;53.592;10.184;2023-03-01T20:42:33;29.07;;;18.40;;
16015;SDS011;8112;53.592;10.184;2023-03-01T20:47:35;28.47;;;18.63;;
16015;SDS011;8112;53.592;10.184;2023-03-01T20:52:38;28.20;;;18.53;;
16015;SDS011;8112;53.592;10.184;2023-03-01T20:57:40;24.23;;;16.50;;
16015;SDS011;8112;53.592;10.184;2023-03-01T21:02:41;38.83;;;17.87;;
16015;SDS011;8112;53.592;10.184;2023-03-01T21:07:45;27.67;;;17.27;;
16015;SDS011;8112;53.592;10.184;2023-03-01T21:12:47;24.37;;;16.60;;
16015;SDS011;8112;53.592;10.184;2023-03-01T21:17:50;43.17;;;18.13;;
16015;SDS011;8112;53.592;10.184;2023-03-01T21:22:53;35.80;;;17.80;;
16015;SDS011;8112;53.592;10.184;2023-03-01T21:27:54;25.27;;;16.17;;
16015;SDS011;8112;53.592;10.184;2023-03-01T21:32:56;26.63;;;17.13;;
16015;SDS011;8112;53.592;10.184;2023-03-01T21:37:59;28.90;;;16.93;;
16015;SDS011;8112;53.592;10.184;2023-03-01T21:43:01;28.57;;;15.67;;
16015;SDS011;8112;53.592;10.184;2023-03-01T21:48:02;39.77;;;17.23;;
16015;SDS011;8112;53.592;10.184;2023-03-01T21:53:05;31.10;;;16.77;;
16015;SDS011;8112;53.592;10.184;2023-03-01T21:58:07;36.83;;;17.83;;
16015;SDS011;8112;53.592;10.184;2023-03-01T22:03:09;25.73;;;16.40;;
16015;SDS011;8112;53.592;10.184;2023-03-01T22:08:12;29.67;;;13.77;;
16015;SDS011;8112;53.592;10.184;2023-03-01T22:13:14;24.60;;;13.43;;
16015;SDS011;8112;53.592;10.184;2023-03-01T22:18:15;24.97;;;12.80;;
16015;SDS011;8112;53.592;10.184;2023-03-01T22:23:19;26.30;;;13.13;;
16015;SDS011;8112;53.592;10.184;2023-03-01T22:28:21;21.47;;;13.50;;
16015;SDS011;8112;53.592;10.184;2023-03-01T22:33:23;39.83;;;13.30;;
16015;SDS011;8112;53.592;10.184;2023-03-01T22:38:26;26.47;;;13.70;;
16015;SDS011;8112;53.592;10.184;2023-03-01T22:43:28;27.27;;;12.30;;
16015;SDS011;8112;53.592;10.184;2023-03-01T22:48:31;20.57;;;11.53;;
16015;SDS011;8112;53.592;10.184;2023-03-01T22:53:34;23.83;;;11.27;;
16015;SDS011;8112;53.592;10.184;2023-03-01T22:58:36;17.50;;;11.07;;
16015;SDS011;8112;53.592;10.184;2023-03-01T23:03:37;22.10;;;11.50;;
16015;SDS011;8112;53.592;10.184;2023-03-01T23:08:41;23.13;;;12.30;;
16015;SDS011;8112;53.592;10.184;2023-03-01T23:13:43;22.27;;;10.93;;
16015;SDS011;8112;53.592;10.184;2023-03-01T23:18:45;18.13;;;11.17;;
16015;SDS011;8112;53.592;10.184;2023-03-01T23:23:48;22.63;;;11.70;;
16015;SDS011;8112;53.592;10.184;2023-03-01T23:28:50;26.77;;;11.30;;
16015;SDS011;8112;53.592;10.184;2023-03-01T23:33:52;26.20;;;11.30;;
16015;SDS011;8112;53.592;10.184;2023-03-01T23:38:56;24.17;;;11.27;;
16015;SDS011;8112;53.592;10.184;2023-03-01T23:43:59;24.70;;;11.20;;
16015;SDS011;8112;53.592;10.184;2023-03-01T23:49:02;18.70;;;10.37;;
16015;SDS011;8112;53.592;10.184;2023-03-01T23:54:05;14.93;;;10.60;;
16015;SDS011;8112;53.592;10.184;2023-03-01T23:59:08;15.83;;;10.03;;
